Latest Coastal Weather Observations for Maria Island

IDT60701

Issued at 10:32 pm EDT Friday 23 October 2020 (issued every 10 minutes, with the page automatically refreshed every 10 minutes)

About coastal observations | Map of coastal stations | Coastal observations for TAS | Marine services | Other Formats
Station Details ID: 092124 Name: MARIA ISLAND (POINT LESUEUR) Lat: -42.66 Lon: 148.02 Height: 28.0 m
Data from the previous 72 hours. | See also: Recent months at Maria Island
Date/Time
EDT
Wind Sea
Height
m
Swell Vis
km
Cloud Weather Temp
°C
Press
MSL
hPa
Rain since
9am
mm
Dir  Spd
kts
Gust
kts
Height
m
Period
s
Dir
23/10:30pm SSW 6 7 - - - - - - - 12.9 1004.3 0.0
23/10:00pm SSW 4 4 - - - - - - - 12.8 1004.8 0.0
23/09:30pm SSW 6 7 - - - - - - - 12.9 1005.1 0.0
23/09:00pm SSW 5 6 - - - - - - - 13.0 1005.3 0.0
23/08:30pm SSW 7 9 - - - - - - - 13.1 1005.3 0.0
23/08:00pm SSW 8 9 - - - - - - - 13.1 1005.2 0.0
23/07:30pm SSW 7 10 - - - - - - - 13.2 1005.1 0.0
23/07:00pm SSW 7 9 - - - - - - - 13.5 1005.2 0.0
23/06:30pm SSW 7 9 - - - - - - - 13.7 1005.2 0.0
23/06:00pm NNE 9 11 - - - - - - - 15.1 1005.2 0.0
23/05:30pm NNE 11 16 - - - - - - - 15.7 1005.1 0.0
23/05:00pm NNE 12 14 - - - - - - - 14.9 1005.1 0.0
23/04:30pm NNE 11 13 - - - - - - - 15.0 1005.1 0.0
23/04:00pm N 14 16 - - - - - - - 15.0 1005.2 0.0
23/03:30pm N 12 13 - - - - - - - 15.5 1005.2 0.0
23/03:00pm N 14 16 - - - - - - - 16.1 1005.8 0.0
23/02:30pm N 13 15 - - - - - - - 15.8 1006.3 0.0
23/02:00pm N 13 15 - - - - - - - 15.3 1006.7 0.0
23/01:30pm NNE 13 15 - - - - - - - 15.0 1007.1 0.0
23/01:00pm N 12 14 - - - - - - - 14.7 1007.3 0.0
23/12:30pm N 13 15 - - - - - - - 14.3 1007.8 0.0
23/12:00pm N 14 16 - - - - - - - 14.2 1008.0 0.0
23/11:30am N 13 15 - - - - - - - 14.3 1008.4 0.0
23/11:00am N 15 19 - - - - - - - 14.3 1008.7 0.0
23/10:30am NNE 15 17 - - - - - - - 13.9 1009.1 0.0
23/10:00am N 12 13 - - - - - - - 13.9 1009.5 0.0
23/09:30am N 9 10 - - - - - - - 14.1 1009.9 0.0
23/09:00am N 6 7 - - - - - - - 13.1 1009.9 0.0
23/08:30am N 8 10 - - - - - - - 13.1 1010.5 0.0
23/08:00am N 6 7 - - - - - - - 12.0 1010.6 0.0
23/07:30am N 7 8 - - - - - - - 12.1 1010.9 0.0
23/07:00am NNE 3 3 - - - - - - - 11.3 1010.7 0.0
23/06:30am NE 4 5 - - - - - - - 10.4 1010.4 0.0
23/06:00am NE 3 4 - - - - - - - 10.6 1010.5 0.0
23/05:30am NW 1 2 - - - - - - - 11.3 1010.7 0.0
23/05:00am NW 5 6 - - - - - - - 11.6 1010.8 0.0
23/04:30am N 10 11 - - - - - - - 12.1 1011.0 0.0
23/04:00am N 10 11 - - - - - - - 12.2 1011.2 0.0
23/03:30am N 11 12 - - - - - - - 12.4 1011.5 0.0
23/03:00am N 15 16 - - - - - - - 12.5 1011.7 0.0
23/02:30am N 16 18 - - - - - - - 12.6 1011.9 0.0
23/02:00am N 19 21 - - - - - - - 12.8 1012.4 0.0
23/01:30am N 17 19 - - - - - - - 12.8 1013.0 0.0
23/01:00am N 14 17 - - - - - - - 12.6 1013.5 0.0
23/12:30am NNE 12 15 - - - - - - - 12.4 1013.8 0.0
23/12:00am NNE 14 17 - - - - - - - 12.4 1014.2 0.0
 
Date/Time
EDT
Wind Sea
Height
m
Swell Vis
km
Cloud Weather Temp
°C
Press
MSL
hPa
Rain since
9am
mm
Dir  Spd
kts
Gust
kts
Height
m
Period
s
Dir
22/11:30pm NNE 10 13 - - - - - - - 12.2 1014.7 0.0
22/11:00pm NE 6 8 - - - - - - - 12.6 1015.0 0.0
22/10:30pm NE 3 5 - - - - - - - 12.4 1015.5 0.0
22/10:00pm ENE 4 6 - - - - - - - 12.3 1015.5 0.0
22/09:30pm ENE 4 5 - - - - - - - 12.3 1015.8 0.0
22/09:00pm ENE 4 5 - - - - - - - 12.3 1015.8 0.0
22/08:30pm E 4 7 - - - - - - - 12.3 1015.6 0.0
22/08:00pm ENE 6 7 - - - - - - - 12.2 1015.6 0.0
22/07:30pm ENE 8 10 - - - - - - - 12.3 1015.5 0.0
22/07:00pm ENE 8 11 - - - - - - - 12.4 1015.3 0.0
22/06:30pm E 9 12 - - - - - - - 12.5 1015.1 0.0
22/06:00pm ENE 7 9 - - - - - - - 12.8 1015.1 0.0
22/05:30pm E 7 9 - - - - - - - 12.9 1015.1 0.0
22/05:00pm ESE 4 6 - - - - - - - 13.2 1015.2 0.0
22/04:30pm ESE 11 14 - - - - - - - 13.1 1015.5 0.0
22/04:00pm ESE 10 13 - - - - - - - 13.4 1015.6 0.0
22/03:30pm ESE 11 14 - - - - - - - 13.5 1015.6 0.0
22/03:00pm ESE 11 13 - - - - - - - 13.4 1015.7 0.0
22/02:30pm ESE 12 14 - - - - - - - 13.4 1015.8 0.0
22/02:00pm ESE 10 13 - - - - - - - 13.4 1016.2 0.0
22/01:30pm ESE 10 12 - - - - - - - 13.3 1016.2 0.0
22/01:00pm ESE 9 10 - - - - - - - 12.9 1016.4 0.0
22/12:30pm E 9 10 - - - - - - - 12.6 1016.6 0.0
22/12:00pm E 8 12 - - - - - - - 12.9 1016.8 0.0
22/11:30am E 9 10 - - - - - - - 12.7 1016.8 0.0
22/11:00am E 9 11 - - - - - - - 12.6 1017.0 0.0
22/10:30am E 7 9 - - - - - - - 12.6 1017.2 0.0
22/10:00am E 6 7 - - - - - - - 12.2 1017.3 0.0
22/09:30am S 4 5 - - - - - - - 11.9 1017.3 0.0
22/09:00am SSE 4 6 - - - - - - - 12.0 1017.2 0.0
22/08:30am S 6 7 - - - - - - - 11.5 1017.1 0.0
22/08:00am ESE 4 5 - - - - - - - 11.4 1016.9 0.0
22/07:30am S 5 6 - - - - - - - 10.9 1016.7 0.0
22/07:00am S 7 9 - - - - - - - 11.0 1016.4 0.0
22/06:30am S 10 12 - - - - - - - 10.8 1016.2 0.0
22/06:00am S 9 10 - - - - - - - 11.2 1016.0 0.0
22/05:30am S 7 9 - - - - - - - 11.3 1015.8 0.0
22/05:00am SE 2 2 - - - - - - - 11.3 1015.7 0.0
22/04:30am CALM 0 0 - - - - - - - 11.2 1015.7 0.0
22/04:00am N 2 2 - - - - - - - 11.0 1015.4 0.0
22/03:30am N 2 2 - - - - - - - 11.1 1015.5 0.0
22/03:00am N 2 2 - - - - - - - 11.0 1015.5 0.0
22/02:30am CALM 0 0 - - - - - - - 11.2 1015.7 0.0
22/02:00am W 2 2 - - - - - - - 11.2 1015.9 0.0
22/01:30am CALM 0 1 - - - - - - - 11.2 1016.0 0.0
22/01:00am W 3 3 - - - - - - - 10.9 1016.3 0.0
22/12:30am CALM 0 0 - - - - - - - 11.0 1016.1 0.0
22/12:00am CALM 0 0 - - - - - - - 10.8 1016.1 0.0
 
Date/Time
EDT
Wind Sea
Height
m
Swell Vis
km
Cloud Weather Temp
°C
Press
MSL
hPa
Rain since
9am
mm
Dir  Spd
kts
Gust
kts
Height
m
Period
s
Dir
21/11:30pm ESE 2 3 - - - - - - - 11.2 1016.1 0.0
21/11:00pm ESE 3 3 - - - - - - - 11.1 1016.1 0.0
21/10:30pm ESE 3 3 - - - - - - - 11.3 1016.1 0.0
21/10:00pm ESE 3 3 - - - - - - - 11.3 1016.1 0.0
21/09:30pm SE 3 3 - - - - - - - 11.4 1015.9 0.0
21/09:00pm ESE 4 5 - - - - - - - 11.5 1015.6 0.0
21/08:30pm ESE 3 5 - - - - - - - 11.7 1015.2 0.0
21/08:00pm ESE 5 7 - - - - - - - 12.1 1014.9 0.0
21/07:30pm ESE 6 7 - - - - - - - 12.5 1014.5 0.0
21/07:00pm ESE 6 8 - - - - - - - 13.0 1014.3 0.0
21/06:30pm ESE 6 8 - - - - - - - 13.2 1013.9 0.0
21/06:00pm ESE 6 7 - - - - - - - 13.5 1013.8 0.0
21/05:30pm ESE 7 8 - - - - - - - 13.4 1013.7 0.0
21/05:00pm ESE 8 10 - - - - - - - 13.8 1013.6 0.0
21/04:30pm N 4 7 - - - - - - - 14.0 1013.6 0.0
21/04:00pm NNW 6 7 - - - - - - - 14.0 1013.5 0.0
21/03:30pm NNW 4 6 - - - - - - - 14.2 1013.6 0.0
21/03:00pm NNW 5 6 - - - - - - - 14.2 1013.9 0.0
21/02:30pm E 2 6 - - - - - - - 15.7 1014.0 0.0
21/02:00pm E 5 7 - - - - - - - 14.5 1014.1 0.0
21/01:30pm S 2 4 - - - - - - - 14.0 1014.3 0.0
21/01:00pm S 2 4 - - - - - - - 14.0 1014.3 0.0
21/12:30pm S 2 3 - - - - - - - 14.2 1014.4 0.0
21/12:00pm SSW 4 5 - - - - - - - 13.6 1014.7 0.0
21/11:30am S 4 5 - - - - - - - 13.4 1014.9 0.0
21/11:00am SSE 3 4 - - - - - - - 13.6 1014.9 0.0
21/10:30am SSE 4 5 - - - - - - - 12.6 1015.1 0.0
21/10:00am S 5 7 - - - - - - - 12.2 1015.5 0.0
21/09:30am SSW 8 9 - - - - - - - 12.1 1015.4 0.0
21/09:00am S 3 4 - - - - - - - 12.2 1015.5 0.0
21/08:30am SSW 8 12 - - - - - - - 11.9 1015.4 0.0
21/08:00am W 7 9 - - - - - - - 11.8 1015.2 0.0
21/07:30am WSW 7 8 - - - - - - - 11.9 1015.2 0.0
21/07:00am SW 7 9 - - - - - - - 12.1 1015.0 0.0
21/06:30am SSW 9 10 - - - - - - - 12.1 1014.8 0.0
21/06:00am SSW 7 8 - - - - - - - 12.0 1014.4 0.0
21/05:30am S 6 8 - - - - - - - 12.0 1014.4 0.0
21/05:00am S 7 9 - - - - - - - 12.1 1014.1 0.0
21/04:30am S 8 10 - - - - - - - 12.0 1014.1 0.0
21/04:00am S 8 9 - - - - - - - 12.1 1014.0 0.0
21/03:30am S 7 8 - - - - - - - 12.0 1014.1 0.0
21/03:00am S 7 9 - - - - - - - 12.1 1014.4 0.0
21/02:30am S 5 7 - - - - - - - 12.1 1014.4 0.0
21/02:00am S 8 10 - - - - - - - 12.2 1014.4 0.0
21/01:30am S 9 10 - - - - - - - 12.4 1014.6 0.0
21/01:00am SSW 7 8 - - - - - - - 12.5 1014.7 0.0
21/12:30am S 9 11 - - - - - - - 12.6 1014.9 0.0
21/12:00am S 8 10 - - - - - - - 12.5 1014.9 0.0
 
Date/Time
EDT
Wind Sea
Height
m
Swell Vis
km
Cloud Weather Temp
°C
Press
MSL
hPa
Rain since
9am
mm
Dir  Spd
kts
Gust
kts
Height
m
Period
s
Dir
20/11:30pm S 9 10 - - - - - - - 12.6 1015.0 0.0
20/11:00pm S 9 10 - - - - - - - 12.6 1015.1 0.0

Other formats

Comma delimited format used in spreadsheet applications
http://www.bom.gov.au/fwo/IDT60701/IDT60701.95988.axf

JavaScript Object Notation format (JSON) in row-major order
http://www.bom.gov.au/fwo/IDT60701/IDT60701.95988.json

Data quality

Most of these data are generated automatically and are frequently updated. Quality checks on data are not normally performed. It is possible for incorrect values to appear. Refer to information at About Latest Weather Observations and please check the disclaimer before using these data.